Time;durP1;ratioP1;P1;durP2;ratioP2;P2;SDS_P1;SDS_P2;PMS_P1;PMS_P2;Temp;Humidity;BMP_temperature;BMP_pressure;BME280_temperature;BME280_humidity;BME280_pressure;Samples;Min_cycle;Max_cycle;Signal;HPM_P1;HPM_P2
2023/02/12 00:02:27;;;;;;;7.70;4.40;;;;;;;;;;6215366;28;20385;-78
2023/02/12 00:05:33;;;;;;;9.13;4.17;;;;;;;;;;6217716;28;20309;-78
2023/02/12 00:08:40;;;;;;;7.50;4.30;;;;;;;;;;6215545;28;20476;-78
2023/02/12 00:11:45;;;;;;;5.03;4.20;;;;;;;;;;6212709;28;20268;-77
2023/02/12 00:14:50;;;;;;;3.90;3.60;;;;;;;;;;6213454;28;20295;-78
2023/02/12 00:17:55;;;;;;;5.40;4.07;;;;;;;;;;6213925;28;20565;-79
2023/02/12 00:21:01;;;;;;;5.10;3.97;;;;;;;;;;6212784;28;20297;-78
2023/02/12 00:24:08;;;;;;;6.57;3.77;;;;;;;;;;6213714;28;20294;-77
2023/02/12 00:27:14;;;;;;;3.97;3.67;;;;;;;;;;6213616;28;20294;-78
2023/02/12 00:30:19;;;;;;;4.57;3.43;;;;;;;;;;6213107;28;20293;-77
2023/02/12 00:33:25;;;;;;;8.00;3.50;;;;;;;;;;6228329;28;20297;-78
2023/02/12 00:36:31;;;;;;;3.67;3.20;;;;;;;;;;6213731;28;20290;-79
2023/02/12 00:39:39;;;;;;;4.10;3.70;;;;;;;;;;6227687;28;20625;-77
2023/02/12 00:42:47;;;;;;;5.03;3.20;;;;;;;;;;6213016;28;20397;-78
2023/02/12 00:45:52;;;;;;;5.67;3.43;;;;;;;;;;6212209;28;20294;-78
2023/02/12 00:48:58;;;;;;;5.70;3.33;;;;;;;;;;6228018;28;20309;-79
2023/02/12 00:52:05;;;;;;;2.80;2.60;;;;;;;;;;6213259;28;20480;-78
2023/02/12 00:55:11;;;;;;;5.80;2.13;;;;;;;;;;6211946;28;20285;-78
2023/02/12 00:58:17;;;;;;;2.10;2.00;;;;;;;;;;6211978;28;20297;-78
2023/02/12 01:01:23;;;;;;;3.33;2.13;;;;;;;;;;6211904;28;20302;-78
2023/02/12 01:04:28;;;;;;;8.63;2.93;;;;;;;;;;6211442;28;20310;-77
2023/02/12 01:07:33;;;;;;;4.47;2.23;;;;;;;;;;6210721;28;20298;-77
2023/02/12 01:10:40;;;;;;;2.00;1.90;;;;;;;;;;6212608;28;20298;-79
2023/02/12 01:13:46;;;;;;;3.50;2.30;;;;;;;;;;6226810;28;20307;-78
2023/02/12 01:16:52;;;;;;;2.50;2.30;;;;;;;;;;6227476;28;20286;-78
2023/02/12 01:19:58;;;;;;;2.13;2.03;;;;;;;;;;6211959;28;20298;-78
2023/02/12 01:23:05;;;;;;;2.20;1.80;;;;;;;;;;6210638;28;20303;-78
2023/02/12 01:26:15;;;;;;;2.93;1.83;;;;;;;;;;6212199;28;20297;-78
2023/02/12 01:29:20;;;;;;;1.97;1.87;;;;;;;;;;6210261;28;20417;-78
2023/02/12 01:32:25;;;;;;;1.97;1.87;;;;;;;;;;6210051;28;20308;-79
2023/02/12 01:35:30;;;;;;;1.77;1.67;;;;;;;;;;6227245;28;20475;-79
2023/02/12 01:38:35;;;;;;;2.10;1.83;;;;;;;;;;6210634;28;20305;-79
2023/02/12 01:41:44;;;;;;;1.93;1.70;;;;;;;;;;6226633;28;20304;-78
2023/02/12 01:45:28;;;;;;;1.97;1.90;;;;;;;;;;6211487;28;20296;-78
2023/02/12 01:48:36;;;;;;;2.10;1.90;;;;;;;;;;6201809;28;20283;-78
2023/02/12 01:51:42;;;;;;;1.63;1.60;;;;;;;;;;6226918;28;20294;-78
2023/02/12 01:54:49;;;;;;;2.00;1.90;;;;;;;;;;6209550;28;20290;-77
2023/02/12 01:57:56;;;;;;;2.97;1.80;;;;;;;;;;6225679;28;20305;-77
2023/02/12 02:01:02;;;;;;;3.80;1.70;;;;;;;;;;6210064;28;20307;-78
2023/02/12 02:04:10;;;;;;;4.17;1.40;;;;;;;;;;6228561;23;20308;-85
2023/02/12 02:07:19;;;;;;;2.10;1.87;;;;;;;;;;6226689;28;20606;-84
2023/02/12 02:10:25;;;;;;;2.03;1.90;;;;;;;;;;6193658;28;20294;-84
2023/02/12 02:17:07;;;;;;;2.60;1.70;;;;;;;;;;6186507;28;20472;-83
2023/02/12 02:20:50;;;;;;;2.20;1.50;;;;;;;;;;6188861;28;20297;-83
2023/02/12 02:24:32;;;;;;;1.40;1.30;;;;;;;;;;6209085;28;20462;-83
2023/02/12 02:27:42;;;;;;;2.17;1.53;;;;;;;;;;6210825;28;20295;-84
2023/02/12 02:30:53;;;;;;;5.37;1.80;;;;;;;;;;6210592;28;20294;-85
2023/02/12 02:34:03;;;;;;;2.30;1.40;;;;;;;;;;6210892;28;20292;-83
2023/02/12 02:37:16;;;;;;;1.60;1.40;;;;;;;;;;6211268;28;20481;-85
2023/02/12 02:40:25;;;;;;;1.50;1.43;;;;;;;;;;6208884;28;20293;-84
2023/02/12 02:43:33;;;;;;;1.63;1.53;;;;;;;;;;6209386;28;20298;-84
2023/02/12 02:46:44;;;;;;;1.40;1.40;;;;;;;;;;6226472;28;20429;-83
2023/02/12 02:49:52;;;;;;;2.10;1.30;;;;;;;;;;6210739;28;20318;-84
2023/02/12 02:53:01;;;;;;;1.37;1.37;;;;;;;;;;6210593;28;20298;-83
2023/02/12 02:56:09;;;;;;;1.37;1.30;;;;;;;;;;6210157;28;20578;-84
2023/02/12 02:59:20;;;;;;;2.20;1.40;;;;;;;;;;6210553;28;20298;-83
2023/02/12 03:02:29;;;;;;;3.50;1.27;;;;;;;;;;6204374;28;20302;-84
2023/02/12 03:05:39;;;;;;;1.20;1.20;;;;;;;;;;6216779;28;20298;-81
2023/02/12 03:08:50;;;;;;;4.93;1.30;;;;;;;;;;6212553;28;20307;-84
2023/02/12 03:12:01;;;;;;;1.63;1.37;;;;;;;;;;6204275;28;20615;-84
2023/02/12 03:15:15;;;;;;;1.47;1.47;;;;;;;;;;6186716;28;20656;-83
2023/02/12 03:18:26;;;;;;;1.20;1.10;;;;;;;;;;6199259;28;20540;-84
2023/02/12 03:21:36;;;;;;;2.53;1.43;;;;;;;;;;6191705;28;20368;-85
2023/02/12 03:24:43;;;;;;;3.60;1.77;;;;;;;;;;6191195;28;20600;-84
2023/02/12 03:27:52;;;;;;;2.23;1.30;;;;;;;;;;6191224;28;20304;-83
2023/02/12 03:31:08;;;;;;;3.93;1.60;;;;;;;;;;6189630;28;20494;-84
2023/02/12 03:34:19;;;;;;;1.50;1.20;;;;;;;;;;6189203;28;20479;-83
2023/02/12 03:37:29;;;;;;;1.20;1.20;;;;;;;;;;6191013;28;20291;-84
2023/02/12 03:40:38;;;;;;;1.50;1.40;;;;;;;;;;6190131;28;20467;-84
2023/02/12 03:43:49;;;;;;;2.50;1.30;;;;;;;;;;6188846;28;20304;-84
2023/02/12 03:47:00;;;;;;;1.13;1.13;;;;;;;;;;6191141;28;20299;-83
2023/02/12 03:50:14;;;;;;;1.27;1.10;;;;;;;;;;6205481;28;20309;-83
2023/02/12 03:53:21;;;;;;;1.20;1.20;;;;;;;;;;6204899;28;20307;-84
2023/02/12 03:56:30;;;;;;;1.60;1.53;;;;;;;;;;6205762;28;20292;-83
2023/02/12 03:59:38;;;;;;;1.37;1.30;;;;;;;;;;6171899;28;20491;-84
2023/02/12 04:02:44;;;;;;;2.73;1.37;;;;;;;;;;6194208;28;20301;-85
2023/02/12 04:05:52;;;;;;;4.97;1.30;;;;;;;;;;6206427;28;20292;-84
2023/02/12 04:09:01;;;;;;;3.27;1.30;;;;;;;;;;6188403;28;20299;-84
2023/02/12 04:12:20;;;;;;;3.20;1.30;;;;;;;;;;6201050;28;20304;-84
2023/02/12 04:15:47;;;;;;;4.47;1.40;;;;;;;;;;6172519;28;20292;-84
2023/02/12 04:18:52;;;;;;;1.43;1.30;;;;;;;;;;6200863;28;20309;-84
2023/02/12 04:22:12;;;;;;;2.50;1.30;;;;;;;;;;6189951;28;20309;-84
2023/02/12 04:25:24;;;;;;;1.30;1.30;;;;;;;;;;6188196;28;20312;-83
2023/02/12 04:28:36;;;;;;;1.40;1.30;;;;;;;;;;6204535;28;20308;-84
2023/02/12 04:31:49;;;;;;;1.47;1.37;;;;;;;;;;6188151;28;20298;-83
2023/02/12 04:35:02;;;;;;;1.97;1.50;;;;;;;;;;6172599;28;20304;-84
2023/02/12 04:38:13;;;;;;;2.60;1.60;;;;;;;;;;6211748;28;20299;-83
2023/02/12 04:41:20;;;;;;;3.33;1.53;;;;;;;;;;6218495;28;20297;-83
2023/02/12 04:44:28;;;;;;;2.30;1.80;;;;;;;;;;6221577;28;20586;-85
2023/02/12 04:47:33;;;;;;;2.00;1.80;;;;;;;;;;6211420;28;20452;-83
2023/02/12 04:50:41;;;;;;;1.60;1.50;;;;;;;;;;6212945;28;20275;-84
2023/02/12 04:53:49;;;;;;;1.60;1.50;;;;;;;;;;6213133;28;20383;-84
2023/02/12 04:56:55;;;;;;;2.70;1.67;;;;;;;;;;6213605;28;20288;-83
2023/02/12 05:00:01;;;;;;;3.37;1.87;;;;;;;;;;6212822;28;20579;-84
2023/02/12 05:03:07;;;;;;;2.43;1.60;;;;;;;;;;6210756;28;20292;-83
2023/02/12 05:06:15;;;;;;;2.10;1.60;;;;;;;;;;6211716;28;20292;-84
2023/02/12 05:09:23;;;;;;;2.00;1.70;;;;;;;;;;6213156;28;20572;-85
2023/02/12 05:12:29;;;;;;;1.60;1.60;;;;;;;;;;6170833;28;20295;-84
2023/02/12 05:15:35;;;;;;;1.93;1.60;;;;;;;;;;6212742;28;20288;-83
2023/02/12 05:18:41;;;;;;;2.03;1.50;;;;;;;;;;6211350;28;20300;-84
2023/02/12 05:21:47;;;;;;;2.33;1.40;;;;;;;;;;6212922;28;20473;-85
2023/02/12 05:24:56;;;;;;;1.50;1.40;;;;;;;;;;6211147;28;20312;-85
2023/02/12 05:28:02;;;;;;;3.43;1.17;;;;;;;;;;6213157;28;21161;-82
2023/02/12 05:31:09;;;;;;;2.47;1.40;;;;;;;;;;6237510;28;20300;-84
2023/02/12 05:34:16;;;;;;;3.43;1.40;;;;;;;;;;6212168;28;20296;-85
2023/02/12 05:37:22;;;;;;;3.70;1.23;;;;;;;;;;6211053;28;20295;-85
2023/02/12 05:40:30;;;;;;;1.33;1.33;;;;;;;;;;6212201;28;20301;-83
2023/02/12 05:43:36;;;;;;;1.77;1.40;;;;;;;;;;6226240;28;20295;-84
2023/02/12 05:46:44;;;;;;;1.20;1.20;;;;;;;;;;6212089;28;20301;-84
2023/02/12 05:49:52;;;;;;;1.87;1.40;;;;;;;;;;6211658;28;20304;-84
2023/02/12 05:52:58;;;;;;;1.67;1.40;;;;;;;;;;6211562;28;20304;-84
2023/02/12 05:56:13;;;;;;;2.00;1.27;;;;;;;;;;6211099;28;20296;-84
2023/02/12 05:59:20;;;;;;;1.57;1.30;;;;;;;;;;6210812;28;20299;-84
2023/02/12 06:02:27;;;;;;;1.87;1.20;;;;;;;;;;6211856;28;20581;-84
2023/02/12 06:05:34;;;;;;;2.00;1.00;;;;;;;;;;6207313;28;20577;-84
2023/02/12 06:08:42;;;;;;;2.33;1.40;;;;;;;;;;6224209;28;20556;-83
2023/02/12 06:11:52;;;;;;;1.50;1.30;;;;;;;;;;6182048;28;20408;-83
2023/02/12 06:14:57;;;;;;;2.07;1.40;;;;;;;;;;6226108;28;20295;-84
2023/02/12 06:18:03;;;;;;;1.40;1.30;;;;;;;;;;6226423;28;20468;-84
2023/02/12 06:21:10;;;;;;;1.70;1.33;;;;;;;;;;6210525;28;20438;-84
2023/02/12 06:24:16;;;;;;;1.37;1.27;;;;;;;;;;6211292;28;20295;-84
2023/02/12 06:27:26;;;;;;;1.53;1.23;;;;;;;;;;6211541;28;20286;-84
2023/02/12 06:30:33;;;;;;;3.70;1.60;;;;;;;;;;6211113;28;20295;-84
2023/02/12 06:33:39;;;;;;;8.43;1.40;;;;;;;;;;6209676;28;20299;-83
2023/02/12 06:36:46;;;;;;;1.30;1.30;;;;;;;;;;6211607;28;20287;-85
2023/02/12 06:39:52;;;;;;;4.00;1.40;;;;;;;;;;6194624;28;20291;-84
2023/02/12 06:42:59;;;;;;;3.07;1.63;;;;;;;;;;6218935;28;20377;-83
2023/02/12 06:46:06;;;;;;;2.03;1.30;;;;;;;;;;6211701;28;20298;-84
2023/02/12 06:49:13;;;;;;;1.60;1.50;;;;;;;;;;6210912;28;20309;-84
2023/02/12 06:52:21;;;;;;;1.57;1.43;;;;;;;;;;6211709;28;20295;-82
2023/02/12 06:55:27;;;;;;;2.13;1.13;;;;;;;;;;6214763;28;20310;-84
2023/02/12 06:58:35;;;;;;;4.63;1.20;;;;;;;;;;6214763;28;20292;-84
2023/02/12 07:01:42;;;;;;;3.70;1.40;;;;;;;;;;6216271;28;20297;-84
2023/02/12 07:04:48;;;;;;;1.40;1.30;;;;;;;;;;6214284;28;20612;-84
2023/02/12 07:07:57;;;;;;;2.73;1.60;;;;;;;;;;6214352;28;20304;-83
2023/02/12 07:11:03;;;;;;;3.37;1.50;;;;;;;;;;6218206;28;20549;-84
2023/02/12 07:14:15;;;;;;;2.10;1.57;;;;;;;;;;6181341;28;20306;-85
2023/02/12 07:17:20;;;;;;;1.37;1.37;;;;;;;;;;6166405;28;20294;-84
2023/02/12 07:20:26;;;;;;;2.00;1.50;;;;;;;;;;6167516;28;20306;-84
2023/02/12 07:23:32;;;;;;;2.93;1.47;;;;;;;;;;6165777;28;20459;-84
2023/02/12 07:26:38;;;;;;;1.47;1.37;;;;;;;;;;6180727;28;20274;-84
2023/02/12 07:29:46;;;;;;;2.10;1.60;;;;;;;;;;6167003;28;20290;-83
2023/02/12 07:32:51;;;;;;;3.83;1.37;;;;;;;;;;6175009;28;20259;-83
2023/02/12 07:36:05;;;;;;;1.57;1.57;;;;;;;;;;6153899;28;20290;-85
2023/02/12 07:39:12;;;;;;;3.10;2.00;;;;;;;;;;6165635;28;20295;-84
2023/02/12 07:42:17;;;;;;;3.97;1.60;;;;;;;;;;6167425;28;20294;-85
2023/02/12 07:45:28;;;;;;;4.60;1.50;;;;;;;;;;6150101;28;20305;-84
2023/02/12 07:48:34;;;;;;;3.53;1.60;;;;;;;;;;6166765;28;20299;-85
2023/02/12 07:51:39;;;;;;;2.60;1.90;;;;;;;;;;6167227;28;20299;-84
2023/02/12 07:54:45;;;;;;;3.13;1.60;;;;;;;;;;6172602;28;20378;-86
2023/02/12 07:57:53;;;;;;;5.70;1.63;;;;;;;;;;6168230;28;20294;-84
2023/02/12 08:01:00;;;;;;;3.40;1.87;;;;;;;;;;6165733;28;20298;-84
2023/02/12 08:04:08;;;;;;;2.50;1.70;;;;;;;;;;6164563;28;20303;-85
2023/02/12 08:07:13;;;;;;;3.13;1.67;;;;;;;;;;6166589;28;20292;-84
2023/02/12 08:10:21;;;;;;;1.70;1.60;;;;;;;;;;6179000;28;20574;-86
2023/02/12 08:13:26;;;;;;;1.90;1.60;;;;;;;;;;6209793;28;20294;-85
2023/02/12 08:16:37;;;;;;;4.13;1.77;;;;;;;;;;6189670;28;20301;-85
2023/02/12 08:19:44;;;;;;;3.97;2.00;;;;;;;;;;6204657;28;20464;-84
2023/02/12 08:22:49;;;;;;;1.77;1.67;;;;;;;;;;6188838;28;20502;-85
2023/02/12 08:25:55;;;;;;;1.77;1.70;;;;;;;;;;6190468;28;20583;-84
2023/02/12 08:29:02;;;;;;;1.83;1.50;;;;;;;;;;6189801;28;20301;-84
2023/02/12 08:32:12;;;;;;;7.70;1.90;;;;;;;;;;6205407;28;20319;-84
2023/02/12 08:35:19;;;;;;;4.17;1.80;;;;;;;;;;6190428;28;20305;-84
2023/02/12 08:38:26;;;;;;;6.30;2.10;;;;;;;;;;6188487;28;20299;-84
2023/02/12 08:41:31;;;;;;;3.63;1.90;;;;;;;;;;6189074;28;20309;-84
2023/02/12 08:44:36;;;;;;;3.27;2.07;;;;;;;;;;6186941;28;20307;-84
2023/02/12 08:47:43;;;;;;;1.80;1.70;;;;;;;;;;6189933;28;20276;-84
2023/02/12 08:50:49;;;;;;;2.10;1.90;;;;;;;;;;6205343;28;20278;-83
2023/02/12 08:53:57;;;;;;;3.53;1.80;;;;;;;;;;6172707;28;20294;-84
2023/02/12 08:57:03;;;;;;;5.70;1.63;;;;;;;;;;6208204;28;20288;-85
2023/02/12 09:00:11;;;;;;;3.93;2.07;;;;;;;;;;6193876;28;20306;-84
2023/02/12 09:03:19;;;;;;;4.63;1.80;;;;;;;;;;6192308;28;20293;-84
2023/02/12 09:06:26;;;;;;;4.43;1.97;;;;;;;;;;6191058;28;20397;-84
2023/02/12 09:09:31;;;;;;;9.63;2.30;;;;;;;;;;6189609;28;20292;-82
2023/02/12 09:12:37;;;;;;;9.73;2.13;;;;;;;;;;6200641;28;20296;-84
2023/02/12 09:15:43;;;;;;;11.27;2.10;;;;;;;;;;6170777;28;20311;-84
2023/02/12 09:18:51;;;;;;;7.93;2.30;;;;;;;;;;6186445;28;20304;-84
2023/02/12 09:21:59;;;;;;;8.63;2.47;;;;;;;;;;6188654;28;20391;-83
2023/02/12 09:25:05;;;;;;;3.93;2.23;;;;;;;;;;6188715;28;20304;-83
2023/02/12 09:28:14;;;;;;;8.53;3.10;;;;;;;;;;6188521;28;20310;-84
2023/02/12 09:31:24;;;;;;;4.93;2.70;;;;;;;;;;6188777;28;20299;-84
2023/02/12 09:34:34;;;;;;;6.97;2.40;;;;;;;;;;6193550;28;20299;-86
2023/02/12 09:37:43;;;;;;;4.00;2.23;;;;;;;;;;6188686;28;20302;-87
2023/02/12 09:40:57;;;;;;;4.30;2.03;;;;;;;;;;6156763;28;20311;-88
2023/02/12 09:44:10;;;;;;;3.87;2.30;;;;;;;;;;6188669;28;20300;-82
2023/02/12 09:47:23;;;;;;;9.23;2.73;;;;;;;;;;6180105;28;20293;-85
2023/02/12 09:50:39;;;;;;;5.30;2.37;;;;;;;;;;6187182;28;20296;-86
2023/02/12 09:53:49;;;;;;;8.67;2.20;;;;;;;;;;6185360;28;20293;-84
2023/02/12 09:57:00;;;;;;;2.93;2.03;;;;;;;;;;6171252;28;20293;-81
2023/02/12 10:00:09;;;;;;;6.37;2.23;;;;;;;;;;6187627;28;20295;-83
2023/02/12 10:03:17;;;;;;;7.07;2.43;;;;;;;;;;6201950;28;20289;-79
2023/02/12 10:06:27;;;;;;;3.70;2.27;;;;;;;;;;6187720;28;20455;-79
2023/02/12 10:09:44;;;;;;;7.50;2.13;;;;;;;;;;6188320;28;20294;-80
2023/02/12 10:12:53;;;;;;;10.53;2.80;;;;;;;;;;6197259;28;20476;-79
2023/02/12 10:16:05;;;;;;;8.37;2.53;;;;;;;;;;6188546;28;20494;-81
2023/02/12 10:19:23;;;;;;;8.73;2.70;;;;;;;;;;6203050;28;20302;-81
2023/02/12 10:22:35;;;;;;;8.87;2.20;;;;;;;;;;6186864;28;20584;-80
2023/02/12 10:26:01;;;;;;;3.63;2.27;;;;;;;;;;6187982;28;20587;-80
2023/02/12 10:29:13;;;;;;;5.80;2.27;;;;;;;;;;6186927;28;20467;-81
2023/02/12 10:32:24;;;;;;;7.43;2.00;;;;;;;;;;6202451;28;20286;-81
2023/02/12 10:35:30;;;;;;;7.33;2.70;;;;;;;;;;6187496;28;20306;-80
2023/02/12 10:38:43;;;;;;;7.50;2.70;;;;;;;;;;6186075;28;20298;-81
2023/02/12 10:41:56;;;;;;;6.67;2.70;;;;;;;;;;6187625;28;20349;-79
2023/02/12 10:45:02;;;;;;;8.00;1.93;;;;;;;;;;6187069;28;20306;-88
2023/02/12 10:48:11;;;;;;;9.37;2.47;;;;;;;;;;6170436;28;20345;-82
2023/02/12 10:51:38;;;;;;;10.43;2.33;;;;;;;;;;6187141;28;20291;-85
2023/02/12 10:54:48;;;;;;;6.77;2.60;;;;;;;;;;6185433;28;20304;-79
2023/02/12 10:57:53;;;;;;;8.00;2.40;;;;;;;;;;6186810;28;20298;-80
2023/02/12 11:01:04;;;;;;;7.10;2.13;;;;;;;;;;6187141;28;20370;-84
2023/02/12 11:04:24;;;;;;;8.33;2.57;;;;;;;;;;6169083;28;20306;-79
2023/02/12 11:07:30;;;;;;;8.27;2.67;;;;;;;;;;6188295;28;20478;-78
2023/02/12 11:10:39;;;;;;;11.07;2.67;;;;;;;;;;6196485;28;20298;-79
2023/02/12 11:13:48;;;;;;;7.53;2.57;;;;;;;;;;6193538;28;20318;-80
2023/02/12 11:16:56;;;;;;;6.90;2.57;;;;;;;;;;6210922;28;20295;-79
2023/02/12 11:20:20;;;;;;;7.87;2.70;;;;;;;;;;6225475;28;20304;-78
2023/02/12 11:23:28;;;;;;;7.00;2.47;;;;;;;;;;6210847;28;20367;-79
2023/02/12 11:26:34;;;;;;;7.07;2.67;;;;;;;;;;6210682;28;20381;-81
2023/02/12 11:29:40;;;;;;;9.17;2.53;;;;;;;;;;6213297;28;20312;-80
2023/02/12 11:32:48;;;;;;;9.37;2.70;;;;;;;;;;6210683;28;20278;-79
2023/02/12 11:35:58;;;;;;;7.93;2.23;;;;;;;;;;6210504;28;20303;-82
2023/02/12 11:39:09;;;;;;;7.90;2.63;;;;;;;;;;6209256;28;20293;-81
2023/02/12 11:42:22;;;;;;;7.97;2.37;;;;;;;;;;6214483;28;20298;-79
2023/02/12 11:45:34;;;;;;;7.37;2.73;;;;;;;;;;6213595;28;20301;-80
2023/02/12 11:48:41;;;;;;;6.70;2.43;;;;;;;;;;6219220;28;20299;-81
2023/02/12 11:51:48;;;;;;;8.57;2.43;;;;;;;;;;6215507;28;20304;-81
2023/02/12 11:54:58;;;;;;;9.23;2.70;;;;;;;;;;6229489;28;20305;-81
2023/02/12 11:58:13;;;;;;;7.03;2.93;;;;;;;;;;6213355;28;20292;-81
2023/02/12 12:01:21;;;;;;;7.23;2.20;;;;;;;;;;6215087;28;20294;-82
2023/02/12 12:04:30;;;;;;;8.53;2.67;;;;;;;;;;6196302;28;20300;-80
2023/02/12 12:07:41;;;;;;;11.57;2.60;;;;;;;;;;6214865;28;20296;-80
2023/02/12 12:10:49;;;;;;;11.00;2.67;;;;;;;;;;6202977;28;20567;-79
2023/02/12 12:14:01;;;;;;;6.23;2.40;;;;;;;;;;6211367;28;20304;-79
2023/02/12 12:20:41;;;;;;;4.47;2.30;;;;;;;;;;6172332;28;20292;-80
2023/02/12 12:23:50;;;;;;;7.17;2.70;;;;;;;;;;6213497;28;20313;-79
2023/02/12 12:26:59;;;;;;;8.77;2.80;;;;;;;;;;6212720;28;20436;-80
2023/02/12 12:30:16;;;;;;;13.60;3.07;;;;;;;;;;6196031;28;20297;-82
2023/02/12 12:33:31;;;;;;;10.67;3.13;;;;;;;;;;6228761;28;20296;-81
2023/02/12 12:37:10;;;;;;;4.93;2.70;;;;;;;;;;6214204;28;20481;-81
2023/02/12 12:40:35;;;;;;;14.67;2.93;;;;;;;;;;6214284;28;20302;-80
2023/02/12 12:43:50;;;;;;;16.63;2.93;;;;;;;;;;6212165;28;20290;-80
2023/02/12 12:47:10;;;;;;;11.00;2.70;;;;;;;;;;6213982;28;20300;-81
2023/02/12 12:50:38;;;;;;;7.27;2.60;;;;;;;;;;6213376;28;20474;-80
2023/02/12 12:53:55;;;;;;;7.60;2.93;;;;;;;;;;6210879;28;20478;-81
2023/02/12 12:57:08;;;;;;;12.53;2.80;;;;;;;;;;6213602;28;20286;-81
2023/02/12 13:00:27;;;;;;;7.07;3.10;;;;;;;;;;6212932;28;20289;-79
2023/02/12 13:04:09;;;;;;;6.20;2.67;;;;;;;;;;6212620;28;20302;-81
2023/02/12 13:07:33;;;;;;;8.43;2.57;;;;;;;;;;6214085;28;20294;-79
2023/02/12 13:10:41;;;;;;;11.13;3.73;;;;;;;;;;6202448;28;20303;-79
2023/02/12 13:13:49;;;;;;;6.57;2.70;;;;;;;;;;6209771;28;20299;-80
2023/02/12 13:17:00;;;;;;;9.03;2.80;;;;;;;;;;6212644;28;20593;-79
2023/02/12 13:20:10;;;;;;;5.43;2.80;;;;;;;;;;6212935;28;20316;-77
2023/02/12 13:23:20;;;;;;;10.10;2.90;;;;;;;;;;6211511;28;20306;-83
2023/02/12 13:26:33;;;;;;;8.40;2.90;;;;;;;;;;6214415;28;20482;-81
2023/02/12 13:29:44;;;;;;;10.83;3.00;;;;;;;;;;6211028;28;20306;-80
2023/02/12 13:32:57;;;;;;;8.30;2.87;;;;;;;;;;6198304;28;20274;-78
2023/02/12 13:36:07;;;;;;;15.60;2.87;;;;;;;;;;6213062;28;20426;-78
2023/02/12 13:39:22;;;;;;;6.97;3.07;;;;;;;;;;6211340;28;20293;-80
2023/02/12 13:42:39;;;;;;;11.40;2.70;;;;;;;;;;6211557;28;20297;-78
2023/02/12 13:45:50;;;;;;;12.40;3.60;;;;;;;;;;6211610;28;20375;-80
2023/02/12 13:49:05;;;;;;;13.70;3.20;;;;;;;;;;6211071;28;20608;-80
2023/02/12 13:52:20;;;;;;;9.20;3.07;;;;;;;;;;6212990;28;20238;-81
2023/02/12 13:55:31;;;;;;;8.07;2.60;;;;;;;;;;6213628;28;20605;-81
2023/02/12 13:58:59;;;;;;;9.67;2.87;;;;;;;;;;6211225;28;20628;-82
2023/02/12 14:02:05;;;;;;;10.50;2.90;;;;;;;;;;6211464;28;20328;-81
2023/02/12 14:05:31;;;;;;;7.60;2.80;;;;;;;;;;6209606;28;20300;-82
2023/02/12 14:08:38;;;;;;;10.90;2.83;;;;;;;;;;6205493;28;20302;-82
2023/02/12 14:11:51;;;;;;;7.80;2.60;;;;;;;;;;6197694;28;20281;-81
2023/02/12 14:15:04;;;;;;;8.00;3.00;;;;;;;;;;6211638;28;20304;-81
2023/02/12 14:18:34;;;;;;;10.60;3.03;;;;;;;;;;6211776;28;20302;-82
2023/02/12 14:21:42;;;;;;;11.37;2.83;;;;;;;;;;6211852;28;20321;-81
2023/02/12 14:33:17;;;;;;;8.73;3.13;;;;;;;;;;6195975;28;20274;-80
2023/02/12 14:36:39;;;;;;;8.37;2.60;;;;;;;;;;6211669;28;20600;-78
2023/02/12 14:39:45;;;;;;;10.83;2.93;;;;;;;;;;6211505;28;20301;-78
2023/02/12 14:42:56;;;;;;;7.80;3.17;;;;;;;;;;6226255;28;20304;-79
2023/02/12 14:46:34;;;;;;;17.73;4.47;;;;;;;;;;6211194;28;20388;-77
2023/02/12 14:49:42;;;;;;;10.87;3.00;;;;;;;;;;6204660;28;20311;-76
2023/02/12 14:52:53;;;;;;;5.37;3.23;;;;;;;;;;6209820;28;20293;-77
2023/02/12 14:55:59;;;;;;;14.20;3.00;;;;;;;;;;6211042;28;20293;-77
2023/02/12 14:59:05;;;;;;;9.77;2.70;;;;;;;;;;6210852;28;20305;-78
2023/02/12 15:02:17;;;;;;;10.23;2.40;;;;;;;;;;6211328;28;20292;-79
2023/02/12 15:05:26;;;;;;;14.60;3.07;;;;;;;;;;6210702;28;20303;-81
2023/02/12 15:08:44;;;;;;;8.17;2.90;;;;;;;;;;6211002;28;20300;-79
2023/02/12 15:11:53;;;;;;;10.17;2.70;;;;;;;;;;6190168;28;20575;-78
2023/02/12 15:15:04;;;;;;;6.50;3.00;;;;;;;;;;6188040;28;20572;-77
2023/02/12 15:18:15;;;;;;;6.43;3.00;;;;;;;;;;6191252;28;20306;-77
2023/02/12 15:21:25;;;;;;;10.47;3.00;;;;;;;;;;6175301;28;20543;-76
2023/02/12 15:24:30;;;;;;;4.97;2.93;;;;;;;;;;6189730;28;20585;-76
2023/02/12 15:27:35;;;;;;;8.83;2.97;;;;;;;;;;6191455;28;20299;-77
2023/02/12 15:30:43;;;;;;;4.03;2.70;;;;;;;;;;6190604;28;20297;-77
2023/02/12 15:33:50;;;;;;;8.23;3.20;;;;;;;;;;6191324;28;20297;-76
2023/02/12 15:36:58;;;;;;;8.23;3.10;;;;;;;;;;6191228;28;20292;-76
2023/02/12 15:40:07;;;;;;;6.33;3.00;;;;;;;;;;6191027;28;20466;-78
2023/02/12 15:43:18;;;;;;;11.77;2.90;;;;;;;;;;6190203;28;20385;-78
2023/02/12 15:46:23;;;;;;;9.07;2.80;;;;;;;;;;6191163;28;20305;-80
2023/02/12 15:49:32;;;;;;;10.20;2.97;;;;;;;;;;6189092;28;20300;-81
2023/02/12 15:52:41;;;;;;;7.03;2.80;;;;;;;;;;6190844;28;20296;-84
2023/02/12 15:55:50;;;;;;;6.30;2.80;;;;;;;;;;6190247;28;20290;-79
2023/02/12 15:58:56;;;;;;;8.23;3.17;;;;;;;;;;6190637;28;20321;-79
2023/02/12 16:02:03;;;;;;;10.03;3.40;;;;;;;;;;6205864;28;20304;-79
2023/02/12 16:05:14;;;;;;;7.80;3.57;;;;;;;;;;6188922;28;20312;-79
2023/02/12 16:08:22;;;;;;;9.00;3.30;;;;;;;;;;6190584;28;20302;-80
2023/02/12 16:11:31;;;;;;;8.37;3.13;;;;;;;;;;6201335;28;20290;-78
2023/02/12 16:14:43;;;;;;;10.90;3.57;;;;;;;;;;6188968;28;20297;-80
2023/02/12 16:17:48;;;;;;;15.00;3.67;;;;;;;;;;6190155;28;20370;-80
2023/02/12 16:21:04;;;;;;;8.33;3.40;;;;;;;;;;6190017;28;20300;-77
2023/02/12 16:24:23;;;;;;;9.47;3.30;;;;;;;;;;6189567;28;20290;-74
2023/02/12 16:27:30;;;;;;;12.93;3.30;;;;;;;;;;6189482;28;20306;-80
2023/02/12 16:30:43;;;;;;;6.60;3.10;;;;;;;;;;6189540;28;20296;-76
2023/02/12 16:33:52;;;;;;;8.83;3.37;;;;;;;;;;6189185;28;20301;-75
2023/02/12 16:36:57;;;;;;;7.07;2.87;;;;;;;;;;6190196;28;20293;-76
2023/02/12 16:40:28;;;;;;;8.17;3.03;;;;;;;;;;6189886;28;20306;-81
2023/02/12 16:43:37;;;;;;;7.37;2.83;;;;;;;;;;6189693;28;20590;-80
2023/02/12 16:46:47;;;;;;;9.13;2.83;;;;;;;;;;6187260;28;20459;-77
2023/02/12 16:49:55;;;;;;;13.43;3.40;;;;;;;;;;6189506;28;20304;-78
2023/02/12 16:53:01;;;;;;;6.00;3.10;;;;;;;;;;6189438;28;20588;-77
2023/02/12 16:56:12;;;;;;;5.20;3.17;;;;;;;;;;6189596;28;20308;-78
2023/02/12 16:59:17;;;;;;;5.53;2.97;;;;;;;;;;6188038;28;20310;-79
2023/02/12 17:02:22;;;;;;;11.60;3.67;;;;;;;;;;6204915;28;20304;-83
2023/02/12 17:05:28;;;;;;;10.87;3.97;;;;;;;;;;6189180;28;20326;-82
2023/02/12 17:08:33;;;;;;;9.17;3.10;;;;;;;;;;6188214;28;20312;-79
2023/02/12 17:11:41;;;;;;;11.30;3.27;;;;;;;;;;6200587;28;20581;-79
2023/02/12 17:14:46;;;;;;;4.73;3.10;;;;;;;;;;6189027;28;20294;-78
2023/02/12 17:17:52;;;;;;;8.93;3.40;;;;;;;;;;6188663;28;20273;-77
2023/02/12 17:21:00;;;;;;;8.17;3.30;;;;;;;;;;6188925;28;20468;-77
2023/02/12 17:24:08;;;;;;;9.20;3.43;;;;;;;;;;6188652;28;20463;-80
2023/02/12 17:27:15;;;;;;;6.27;2.97;;;;;;;;;;6189830;28;20399;-78
2023/02/12 17:30:23;;;;;;;5.50;2.90;;;;;;;;;;6188430;28;20293;-78
2023/02/12 17:33:28;;;;;;;4.80;2.93;;;;;;;;;;6187757;28;20294;-77
2023/02/12 17:36:33;;;;;;;7.83;3.07;;;;;;;;;;6203192;28;20304;-78
2023/02/12 17:39:39;;;;;;;7.90;3.07;;;;;;;;;;6187493;28;20312;-77
2023/02/12 17:42:46;;;;;;;3.07;2.70;;;;;;;;;;6188330;28;20304;-78
2023/02/12 17:45:55;;;;;;;6.33;2.97;;;;;;;;;;6188676;28;20296;-78
2023/02/12 17:49:01;;;;;;;5.93;2.70;;;;;;;;;;6170792;28;20300;-79
2023/02/12 17:52:06;;;;;;;9.20;2.87;;;;;;;;;;6188810;28;20297;-78
2023/02/12 17:55:12;;;;;;;5.97;2.20;;;;;;;;;;6188239;28;20304;-77
2023/02/12 17:58:19;;;;;;;6.43;2.70;;;;;;;;;;6202482;28;20467;-78
2023/02/12 18:01:25;;;;;;;5.97;2.47;;;;;;;;;;6188205;28;20302;-79
2023/02/12 18:04:34;;;;;;;3.93;2.53;;;;;;;;;;6187407;28;20317;-79
2023/02/12 18:07:39;;;;;;;9.03;3.00;;;;;;;;;;6185806;28;20593;-79
2023/02/12 18:10:45;;;;;;;8.47;3.00;;;;;;;;;;6198388;28;20305;-76
2023/02/12 18:13:55;;;;;;;7.17;2.50;;;;;;;;;;6189035;28;20308;-77
2023/02/12 18:17:01;;;;;;;6.43;2.40;;;;;;;;;;6187796;28;20374;-75
2023/02/12 18:20:08;;;;;;;4.00;2.40;;;;;;;;;;6187488;28;20340;-77
2023/02/12 18:23:13;;;;;;;9.03;2.97;;;;;;;;;;6187238;28;20289;-76
2023/02/12 18:26:20;;;;;;;6.27;2.70;;;;;;;;;;6186728;28;20301;-78
2023/02/12 18:29:26;;;;;;;10.07;2.73;;;;;;;;;;6187160;28;20305;-76
2023/02/12 18:32:32;;;;;;;4.93;2.97;;;;;;;;;;6186641;28;20297;-77
2023/02/12 18:35:40;;;;;;;5.60;2.33;;;;;;;;;;6186040;28;20306;-76
2023/02/12 18:38:46;;;;;;;3.33;2.60;;;;;;;;;;6187188;28;20305;-78
2023/02/12 18:41:51;;;;;;;4.13;2.90;;;;;;;;;;6187321;28;20274;-77
2023/02/12 18:45:01;;;;;;;7.53;2.50;;;;;;;;;;6201261;28;20320;-79
2023/02/12 18:48:08;;;;;;;2.30;2.20;;;;;;;;;;6187004;28;20288;-78
2023/02/12 18:51:15;;;;;;;6.90;2.50;;;;;;;;;;6194033;28;20296;-78
2023/02/12 18:54:21;;;;;;;5.87;2.20;;;;;;;;;;6195239;28;20296;-77
2023/02/12 18:57:28;;;;;;;3.17;2.50;;;;;;;;;;6195079;28;20297;-78
2023/02/12 19:00:35;;;;;;;2.53;2.37;;;;;;;;;;6195003;28;20301;-78
2023/02/12 19:03:40;;;;;;;7.90;2.70;;;;;;;;;;6195299;28;20597;-77
2023/02/12 19:06:47;;;;;;;3.13;2.30;;;;;;;;;;6193946;28;20289;-78
2023/02/12 19:09:52;;;;;;;3.07;1.97;;;;;;;;;;6193200;28;20297;-79